Great Eastern — V7HF4 — position and weather

sailwx.info

Track history (hours):
 
Tides and Currents Weather Stations Pressure Air Temp Water Temp Dewpoint Dewpoint Depression Visibility Wind Speed Wind Dir Waves Ship Positions

Great Eastern

Last reported at 2018-Aug-15 06:24 UTC. Time now 2018-Aug-19 23:12 UTC.
Position N 42°45' W 070°08'.

Length 181 m; draft 7.4 m.

Type: Tanker. MMSI: 538002221.

Date/timePositionNaut miles runAvg speedWind from/ knotsBaromVisibWave heightAir tempDewpointWater temp
2018-Aug-15 06:24N 42°45' W 070°08'613.6
2018-Aug-15 05:59N 42°42' W 070°15'613.7
2018-Aug-15 05:31N 42°39' W 070°22'713.4
2018-Aug-15 05:01N 42°35' W 070°29'713.2
2018-Aug-15 04:31N 42°31' W 070°37'713.0
2018-Aug-15 04:00N 42°28' W 070°44'612.9
2018-Aug-15 03:31N 42°24' W 070°52'611.3
2018-Aug-15 03:00N 42°20' W 070°57'1 2.1
2018-Aug-15 02:29N 42°20' W 070°59'0 0.0
2018-Aug-15 01:59N 42°20' W 070°59'0 0.1
2018-Aug-15 01:29N 42°20' W 070°58'0 0.2
2018-Aug-15 00:53N 42°20' W 070°58'0 0.1
2018-Aug-15 00:29N 42°20' W 070°58'0 0.0
2018-Aug-14 23:59N 42°20' W 070°58'0 0.0
2018-Aug-14 23:29N 42°20' W 070°58'0 0.1
2018-Aug-14 22:59N 42°20' W 070°58'0 0.3
2018-Aug-14 22:21N 42°20' W 070°59'0 0.9
2018-Aug-14 22:00N 42°20' W 070°59'4 7.2
2018-Aug-14 21:31N 42°22' W 071°03'1 2.5
2018-Aug-14 20:59N 42°23' W 071°01'0 0.0
2018-Aug-14 20:29N 42°23' W 071°01'0 0.0
2018-Aug-14 19:53N 42°23' W 071°01'0 0.0
2018-Aug-14 19:26N 42°23' W 071°01'0 0.0
2018-Aug-14 18:59N 42°23' W 071°01'0 0.0
2018-Aug-14 18:29N 42°23' W 071°01'0 0.0
2018-Aug-14 17:59N 42°23' W 071°01'0 0.0
2018-Aug-13 20:24N 42°23' W 071°01'0 0.9
2018-Aug-13 20:00N 42°23' W 071°01'0 0.3
2018-Aug-13 19:30N 42°24' W 071°01'0 0.0
2018-Aug-13 16:03N 42°24' W 071°01'0 0.0
2018-Aug-13 15:50N 42°24' W 071°01'0 0.0
2018-Aug-13 14:32N 42°24' W 071°01'0 0.0
2018-Aug-13 13:20N 42°24' W 071°01'0 0.0
2018-Aug-13 12:56N 42°24' W 071°01'0 0.0
2018-Aug-13 12:08N 42°24' W 071°01'0 0.0
2018-Aug-13 11:56N 42°24' W 071°01'0 0.0
2018-Aug-13 11:15N 42°24' W 071°01'0 0.0
2018-Aug-13 10:38N 42°24' W 071°01'0 0.0
2018-Aug-13 10:27N 42°24' W 071°01'0 0.0
2018-Aug-13 09:45N 42°24' W 071°01'0 0.0
2018-Aug-13 08:51N 42°24' W 071°01'0 0.0
2018-Aug-13 08:14N 42°24' W 071°01'0 0.0
2018-Aug-13 07:51N 42°24' W 071°01'0 0.0
2018-Aug-13 07:08N 42°24' W 071°01'0 0.0
2018-Aug-13 06:56N 42°24' W 071°01'0 0.0
2018-Aug-13 06:16N 42°24' W 071°01'0 0.0
2018-Aug-13 05:58N 42°24' W 071°01'0 0.0
2018-Aug-13 05:28N 42°24' W 071°01'0 0.0
2018-Aug-13 04:57N 42°24' W 071°01'0 0.0
2018-Aug-13 04:27N 42°24' W 071°01'0 0.0
2018-Aug-13 03:56N 42°24' W 071°01'0 0.0
2018-Aug-13 02:44N 42°24' W 071°01'0 0.0
2018-Aug-13 02:20N 42°24' W 071°01'0 0.0
2018-Aug-13 01:50N 42°24' W 071°01'0 0.0
2018-Aug-13 01:14N 42°24' W 071°01'0 0.0
2018-Aug-13 00:56N 42°24' W 071°01'0 0.0
2018-Aug-13 00:08N 42°24' W 071°01'0 0.0
2018-Aug-12 23:51N 42°24' W 071°01'0 0.0
2018-Aug-12 23:27N 42°24' W 071°01'0 0.0
2018-Aug-12 22:20N 42°24' W 071°01'0 0.0
2018-Aug-12 21:57N 42°24' W 071°01'0 0.0
2018-Aug-12 21:20N 42°24' W 071°01'0 0.0
2018-Aug-12 19:15N 42°24' W 071°01'0 0.0
2018-Aug-12 18:57N 42°24' W 071°01'0 0.1
2018-Aug-12 18:29N 42°23' W 071°01'1 2.3
2018-Aug-12 18:00N 42°23' W 071°02'2 3.5
2018-Aug-12 17:30N 42°21' W 071°02'3 6.8
2018-Aug-12 17:00N 42°20' W 070°58'2 3.6
2018-Aug-12 16:30N 42°21' W 070°56'2 4.4
2018-Aug-12 16:00N 42°23' W 070°54'0 0.2
2018-Aug-12 15:30N 42°23' W 070°54'0 0.2
2018-Aug-12 15:00N 42°23' W 070°54'0 0.6
2018-Aug-12 14:30N 42°23' W 070°54'2 3.7
2018-Aug-12 14:00N 42°24' W 070°51'3 5.2
2018-Aug-12 13:30N 42°24' W 070°48'1 1.9
2018-Aug-12 12:57N 42°24' W 070°46'0 0.1
2018-Aug-12 12:29N 42°24' W 070°47'0 0.0
2018-Aug-12 11:59N 42°24' W 070°47'0 0.0
2018-Aug-12 11:29N 42°24' W 070°47'0 0.2
2018-Aug-12 11:00N 42°24' W 070°46'0 0.2
2018-Aug-12 10:29N 42°24' W 070°46'0 0.0
2018-Aug-12 10:00N 42°24' W 070°46'0 0.1
2018-Aug-12 09:29N 42°24' W 070°46'0 0.0
2018-Aug-12 09:00N 42°24' W 070°46'0 0.0
2018-Aug-12 08:29N 42°25' W 070°46'0 0.1
2018-Aug-12 07:59N 42°25' W 070°46'0 0.0
2018-Aug-12 07:26N 42°25' W 070°46'0 0.0
2018-Aug-12 06:56N 42°25' W 070°46'0 0.0
2018-Aug-12 06:27N 42°25' W 070°46'0 0.1
2018-Aug-12 05:50N 42°25' W 070°46'0 0.1
2018-Aug-12 05:29N 42°25' W 070°46'0 0.1
2018-Aug-12 04:53N 42°24' W 070°47'0 0.1
2018-Aug-12 04:26N 42°24' W 070°47'0 0.1
2018-Aug-12 03:59N 42°24' W 070°47'0 0.0
2018-Aug-12 03:29N 42°24' W 070°47'0 0.0
2018-Aug-12 02:59N 42°24' W 070°47'0 0.0
2018-Aug-12 02:29N 42°24' W 070°47'0 0.0
2018-Aug-12 01:59N 42°24' W 070°47'0 0.0
2018-Aug-12 01:26N 42°24' W 070°47'0 0.0
2018-Aug-12 00:59N 42°24' W 070°47'0 0.0
2018-Aug-12 00:29N 42°24' W 070°47'0 0.0
2018-Aug-11 23:59N 42°24' W 070°47'0 0.0
2018-Aug-11 23:29N 42°24' W 070°47'0 0.0
2018-Aug-11 22:59N 42°24' W 070°47'0 0.1
2018-Aug-11 22:29N 42°24' W 070°47'0 0.1
2018-Aug-11 21:59N 42°24' W 070°47'0 0.1
2018-Aug-11 21:29N 42°25' W 070°46'0 0.1
2018-Aug-11 20:59N 42°25' W 070°46'0 0.1
2018-Aug-11 20:29N 42°24' W 070°46'0 0.0
2018-Aug-11 19:59N 42°24' W 070°46'0 0.0
2018-Aug-11 19:29N 42°24' W 070°46'0 0.0
2018-Aug-11 18:53N 42°24' W 070°46'0 0.0
2018-Aug-11 18:29N 42°24' W 070°46'0 0.0
2018-Aug-11 17:59N 42°24' W 070°46'0 0.1
2018-Aug-11 17:29N 42°24' W 070°46'0 0.1
2018-Aug-11 16:59N 42°25' W 070°46'0 0.1
2018-Aug-11 16:26N 42°25' W 070°46'0 0.1
2018-Aug-11 15:56N 42°25' W 070°47'0 0.1
2018-Aug-11 15:29N 42°24' W 070°47'0 0.1
2018-Aug-11 14:59N 42°24' W 070°47'0 0.0
2018-Aug-11 14:29N 42°24' W 070°47'0 0.0
2018-Aug-11 13:59N 42°24' W 070°47'0 0.0
2018-Aug-11 13:29N 42°24' W 070°47'0 0.0
2018-Aug-11 12:59N 42°24' W 070°47'0 0.0
2018-Aug-11 12:26N 42°24' W 070°47'0 0.0
2018-Aug-11 11:59N 42°24' W 070°47'0 0.1
2018-Aug-11 11:29N 42°25' W 070°47'0 0.5
2018-Aug-11 11:00N 42°25' W 070°46'3 6.0
2018-Aug-11 10:30N 42°27' W 070°45'612.1
2018-Aug-11 10:00N 42°31' W 070°38'713.2
2018-Aug-11 09:30N 42°34' W 070°30'713.0
2018-Aug-11 09:00N 42°38' W 070°23'713.3
2018-Aug-11 08:30N 42°42' W 070°16'713.6
2018-Aug-11 08:00N 42°46' W 070°08'713.6
2018-Aug-11 07:30N 42°50' W 070°00'713.2
2018-Aug-11 07:00N 42°53' W 069°53'713.3
2018-Aug-11 06:30N 42°56' W 069°45'  
2018-Aug-08 02:37N 42°15' W 070°08'214.4
2018-Aug-08 02:30N 42°14' W 070°10'814.2
2018-Aug-08 01:55N 42°08' W 070°18'614.1
2018-Aug-08 01:27N 42°04' W 070°24'9911.3
2018-Aug-07 16:40N 41°13' W 072°18'316.7
2018-Aug-07 16:30N 41°12' W 072°21'816.2
2018-Aug-07 16:00N 41°10' W 072°32'815.5
2018-Aug-07 15:30N 41°10' W 072°42'914.6
2018-Aug-07 14:53N 41°12' W 072°54'0 0.0
2018-Aug-06 17:07N 41°12' W 072°54'1 6.8
2018-Aug-06 17:00N 41°12' W 072°53'3 5.5
2018-Aug-06 16:29N 41°11' W 072°49'511.3
2018-Aug-06 16:00N 41°10' W 072°42'612.5
2018-Aug-06 15:30N 41°09' W 072°34'611.4
2018-Aug-06 15:00N 41°09' W 072°26'611.0
2018-Aug-06 14:30N 41°11' W 072°19'611.5
2018-Aug-06 14:00N 41°13' W 072°12'6412.3
2018-Aug-06 08:50N 41°30' W 070°51'514.3
2018-Aug-06 08:29N 41°33' W 070°45'17 9.0
2018-Aug-06 06:35N 41°46' W 070°31'3 6.7
2018-Aug-06 06:09N 41°48' W 070°27'2 5.8
2018-Aug-06 05:54N 41°49' W 070°27'4 9.3
2018-Aug-06 05:29N 41°53' W 070°27'714.6
2018-Aug-06 05:00N 42°00' W 070°29'814.9
2018-Aug-06 04:30N 42°08' W 070°30'714.4
2018-Aug-06 04:00N 42°15' W 070°31'714.2
2018-Aug-06 03:30N 42°22' W 070°30'714.4
2018-Aug-06 03:00N 42°29' W 070°29'714.4
2018-Aug-06 02:30N 42°36' W 070°29'714.3
2018-Aug-06 02:00N 42°43' W 070°30'714.9
2018-Aug-06 01:30N 42°50' W 070°34'714.8
2018-Aug-06 01:00N 42°57' W 070°39'713.5
2018-Aug-06 00:30N 43°03' W 070°42'  
Track history (hours):
 
Tides and Currents Weather Stations Pressure Air Temp Water Temp Dewpoint Dewpoint Depression Visibility Wind Speed Wind Dir Waves Ship Positions

Great Eastern

Last reported at 2018-Aug-15 06:24 UTC. Time now 2018-Aug-19 23:12 UTC.
Position N 42°45' W 070°08'.

Length 181 m; draft 7.4 m.

Type: Tanker. MMSI: 538002221.

Date/timePositionNaut miles runAvg speedWind from/ knotsBaromVisibWave heightAir tempDewpointWater temp
2018-Aug-15 06:24N 42°45' W 070°08'613.6
2018-Aug-15 05:59N 42°42' W 070°15'613.7
2018-Aug-15 05:31N 42°39' W 070°22'713.4
2018-Aug-15 05:01N 42°35' W 070°29'713.2
2018-Aug-15 04:31N 42°31' W 070°37'713.0
2018-Aug-15 04:00N 42°28' W 070°44'612.9
2018-Aug-15 03:31N 42°24' W 070°52'611.3
2018-Aug-15 03:00N 42°20' W 070°57'1 2.1
2018-Aug-15 02:29N 42°20' W 070°59'0 0.0
2018-Aug-15 01:59N 42°20' W 070°59'0 0.1
2018-Aug-15 01:29N 42°20' W 070°58'0 0.2
2018-Aug-15 00:53N 42°20' W 070°58'0 0.1
2018-Aug-15 00:29N 42°20' W 070°58'0 0.0
2018-Aug-14 23:59N 42°20' W 070°58'0 0.0
2018-Aug-14 23:29N 42°20' W 070°58'0 0.1
2018-Aug-14 22:59N 42°20' W 070°58'0 0.3
2018-Aug-14 22:21N 42°20' W 070°59'0 0.9
2018-Aug-14 22:00N 42°20' W 070°59'4 7.2
2018-Aug-14 21:31N 42°22' W 071°03'1 2.5
2018-Aug-14 20:59N 42°23' W 071°01'0 0.0
2018-Aug-14 20:29N 42°23' W 071°01'0 0.0
2018-Aug-14 19:53N 42°23' W 071°01'0 0.0
2018-Aug-14 19:26N 42°23' W 071°01'0 0.0
2018-Aug-14 18:59N 42°23' W 071°01'0 0.0
2018-Aug-14 18:29N 42°23' W 071°01'0 0.0
2018-Aug-14 17:59N 42°23' W 071°01'0 0.0
2018-Aug-13 20:24N 42°23' W 071°01'0 0.9
2018-Aug-13 20:00N 42°23' W 071°01'0 0.3
2018-Aug-13 19:30N 42°24' W 071°01'0 0.0
2018-Aug-13 16:03N 42°24' W 071°01'0 0.0
2018-Aug-13 15:50N 42°24' W 071°01'0 0.0
2018-Aug-13 14:32N 42°24' W 071°01'0 0.0
2018-Aug-13 13:20N 42°24' W 071°01'0 0.0
2018-Aug-13 12:56N 42°24' W 071°01'0 0.0
2018-Aug-13 12:08N 42°24' W 071°01'0 0.0
2018-Aug-13 11:56N 42°24' W 071°01'0 0.0
2018-Aug-13 11:15N 42°24' W 071°01'0 0.0
2018-Aug-13 10:38N 42°24' W 071°01'0 0.0
2018-Aug-13 10:27N 42°24' W 071°01'0 0.0
2018-Aug-13 09:45N 42°24' W 071°01'0 0.0
2018-Aug-13 08:51N 42°24' W 071°01'0 0.0
2018-Aug-13 08:14N 42°24' W 071°01'0 0.0
2018-Aug-13 07:51N 42°24' W 071°01'0 0.0
2018-Aug-13 07:08N 42°24' W 071°01'0 0.0
2018-Aug-13 06:56N 42°24' W 071°01'0 0.0
2018-Aug-13 06:16N 42°24' W 071°01'0 0.0
2018-Aug-13 05:58N 42°24' W 071°01'0 0.0
2018-Aug-13 05:28N 42°24' W 071°01'0 0.0
2018-Aug-13 04:57N 42°24' W 071°01'0 0.0
2018-Aug-13 04:27N 42°24' W 071°01'0 0.0
2018-Aug-13 03:56N 42°24' W 071°01'0 0.0
2018-Aug-13 02:44N 42°24' W 071°01'0 0.0
2018-Aug-13 02:20N 42°24' W 071°01'0 0.0
2018-Aug-13 01:50N 42°24' W 071°01'0 0.0
2018-Aug-13 01:14N 42°24' W 071°01'0 0.0
2018-Aug-13 00:56N 42°24' W 071°01'0 0.0
2018-Aug-13 00:08N 42°24' W 071°01'0 0.0
2018-Aug-12 23:51N 42°24' W 071°01'0 0.0
2018-Aug-12 23:27N 42°24' W 071°01'0 0.0
2018-Aug-12 22:20N 42°24' W 071°01'0 0.0
2018-Aug-12 21:57N 42°24' W 071°01'0 0.0
2018-Aug-12 21:20N 42°24' W 071°01'0 0.0
2018-Aug-12 19:15N 42°24' W 071°01'0 0.0
2018-Aug-12 18:57N 42°24' W 071°01'0 0.1
2018-Aug-12 18:29N 42°23' W 071°01'1 2.3
2018-Aug-12 18:00N 42°23' W 071°02'2 3.5
2018-Aug-12 17:30N 42°21' W 071°02'3 6.8
2018-Aug-12 17:00N 42°20' W 070°58'2 3.6
2018-Aug-12 16:30N 42°21' W 070°56'2 4.4
2018-Aug-12 16:00N 42°23' W 070°54'0 0.2
2018-Aug-12 15:30N 42°23' W 070°54'0 0.2
2018-Aug-12 15:00N 42°23' W 070°54'0 0.6
2018-Aug-12 14:30N 42°23' W 070°54'2 3.7
2018-Aug-12 14:00N 42°24' W 070°51'3 5.2
2018-Aug-12 13:30N 42°24' W 070°48'1 1.9
2018-Aug-12 12:57N 42°24' W 070°46'0 0.1
2018-Aug-12 12:29N 42°24' W 070°47'0 0.0
2018-Aug-12 11:59N 42°24' W 070°47'0 0.0
2018-Aug-12 11:29N 42°24' W 070°47'0 0.2
2018-Aug-12 11:00N 42°24' W 070°46'0 0.2
2018-Aug-12 10:29N 42°24' W 070°46'0 0.0
2018-Aug-12 10:00N 42°24' W 070°46'0 0.1
2018-Aug-12 09:29N 42°24' W 070°46'0 0.0
2018-Aug-12 09:00N 42°24' W 070°46'0 0.0
2018-Aug-12 08:29N 42°25' W 070°46'0 0.1
2018-Aug-12 07:59N 42°25' W 070°46'0 0.0
2018-Aug-12 07:26N 42°25' W 070°46'0 0.0
2018-Aug-12 06:56N 42°25' W 070°46'0 0.0
2018-Aug-12 06:27N 42°25' W 070°46'0 0.1
2018-Aug-12 05:50N 42°25' W 070°46'0 0.1
2018-Aug-12 05:29N 42°25' W 070°46'0 0.1
2018-Aug-12 04:53N 42°24' W 070°47'0 0.1
2018-Aug-12 04:26N 42°24' W 070°47'0 0.1
2018-Aug-12 03:59N 42°24' W 070°47'0 0.0
2018-Aug-12 03:29N 42°24' W 070°47'0 0.0
2018-Aug-12 02:59N 42°24' W 070°47'0 0.0
2018-Aug-12 02:29N 42°24' W 070°47'0 0.0
2018-Aug-12 01:59N 42°24' W 070°47'0 0.0
2018-Aug-12 01:26N 42°24' W 070°47'0 0.0
2018-Aug-12 00:59N 42°24' W 070°47'0 0.0
2018-Aug-12 00:29N 42°24' W 070°47'0 0.0
2018-Aug-11 23:59N 42°24' W 070°47'0 0.0
2018-Aug-11 23:29N 42°24' W 070°47'0 0.0
2018-Aug-11 22:59N 42°24' W 070°47'0 0.1
2018-Aug-11 22:29N 42°24' W 070°47'0 0.1
2018-Aug-11 21:59N 42°24' W 070°47'0 0.1
2018-Aug-11 21:29N 42°25' W 070°46'0 0.1
2018-Aug-11 20:59N 42°25' W 070°46'0 0.1
2018-Aug-11 20:29N 42°24' W 070°46'0 0.0
2018-Aug-11 19:59N 42°24' W 070°46'0 0.0
2018-Aug-11 19:29N 42°24' W 070°46'0 0.0
2018-Aug-11 18:53N 42°24' W 070°46'0 0.0
2018-Aug-11 18:29N 42°24' W 070°46'0 0.0
2018-Aug-11 17:59N 42°24' W 070°46'0 0.1
2018-Aug-11 17:29N 42°24' W 070°46'0 0.1
2018-Aug-11 16:59N 42°25' W 070°46'0 0.1
2018-Aug-11 16:26N 42°25' W 070°46'0 0.1
2018-Aug-11 15:56N 42°25' W 070°47'0 0.1
2018-Aug-11 15:29N 42°24' W 070°47'0 0.1
2018-Aug-11 14:59N 42°24' W 070°47'0 0.0
2018-Aug-11 14:29N 42°24' W 070°47'0 0.0
2018-Aug-11 13:59N 42°24' W 070°47'0 0.0
2018-Aug-11 13:29N 42°24' W 070°47'0 0.0
2018-Aug-11 12:59N 42°24' W 070°47'0 0.0
2018-Aug-11 12:26N 42°24' W 070°47'0 0.0
2018-Aug-11 11:59N 42°24' W 070°47'0 0.1
2018-Aug-11 11:29N 42°25' W 070°47'0 0.5
2018-Aug-11 11:00N 42°25' W 070°46'3 6.0
2018-Aug-11 10:30N 42°27' W 070°45'612.1
2018-Aug-11 10:00N 42°31' W 070°38'713.2
2018-Aug-11 09:30N 42°34' W 070°30'713.0
2018-Aug-11 09:00N 42°38' W 070°23'713.3
2018-Aug-11 08:30N 42°42' W 070°16'713.6
2018-Aug-11 08:00N 42°46' W 070°08'713.6
2018-Aug-11 07:30N 42°50' W 070°00'713.2
2018-Aug-11 07:00N 42°53' W 069°53'713.3
2018-Aug-11 06:30N 42°56' W 069°45'  
2018-Aug-08 02:37N 42°15' W 070°08'214.4
2018-Aug-08 02:30N 42°14' W 070°10'814.2
2018-Aug-08 01:55N 42°08' W 070°18'614.1
2018-Aug-08 01:27N 42°04' W 070°24'9911.3
2018-Aug-07 16:40N 41°13' W 072°18'316.7
2018-Aug-07 16:30N 41°12' W 072°21'816.2
2018-Aug-07 16:00N 41°10' W 072°32'815.5
2018-Aug-07 15:30N 41°10' W 072°42'914.6
2018-Aug-07 14:53N 41°12' W 072°54'0 0.0
2018-Aug-06 17:07N 41°12' W 072°54'1 6.8
2018-Aug-06 17:00N 41°12' W 072°53'3 5.5
2018-Aug-06 16:29N 41°11' W 072°49'511.3
2018-Aug-06 16:00N 41°10' W 072°42'612.5
2018-Aug-06 15:30N 41°09' W 072°34'611.4
2018-Aug-06 15:00N 41°09' W 072°26'611.0
2018-Aug-06 14:30N 41°11' W 072°19'611.5
2018-Aug-06 14:00N 41°13' W 072°12'6412.3
2018-Aug-06 08:50N 41°30' W 070°51'514.3
2018-Aug-06 08:29N 41°33' W 070°45'17 9.0
2018-Aug-06 06:35N 41°46' W 070°31'3 6.7
2018-Aug-06 06:09N 41°48' W 070°27'2 5.8
2018-Aug-06 05:54N 41°49' W 070°27'4 9.3
2018-Aug-06 05:29N 41°53' W 070°27'714.6
2018-Aug-06 05:00N 42°00' W 070°29'814.9
2018-Aug-06 04:30N 42°08' W 070°30'714.4
2018-Aug-06 04:00N 42°15' W 070°31'714.2
2018-Aug-06 03:30N 42°22' W 070°30'714.4
2018-Aug-06 03:00N 42°29' W 070°29'714.4
2018-Aug-06 02:30N 42°36' W 070°29'714.3
2018-Aug-06 02:00N 42°43' W 070°30'714.9
2018-Aug-06 01:30N 42°50' W 070°34'714.8
2018-Aug-06 01:00N 42°57' W 070°39'713.5
2018-Aug-06 00:30N 43°03' W 070°42'  

Dump ship's entire track history